Time;durP1;ratioP1;P1;durP2;ratioP2;P2;SDS_P1;SDS_P2;PMS_P1;PMS_P2;Temp;Humidity;BMP_temperature;BMP_pressure;BME280_temperature;BME280_humidity;BME280_pressure;Samples;Min_cycle;Max_cycle;Signal;HPM_P1;HPM_P2
2022/11/22 03:02:16;;;;;;;11.17;10.37;;;6.50;99.90;;;;;;5184926;23;20259;-81
2022/11/22 03:04:43;;;;;;;11.57;10.87;;;6.40;99.90;;;;;;4919742;29;20582;-82
2022/11/22 03:07:10;;;;;;;11.10;10.40;;;6.40;99.90;;;;;;4924611;29;20261;-82
2022/11/22 03:09:36;;;;;;;11.17;10.47;;;6.40;99.90;;;;;;4922574;29;20208;-81
2022/11/22 03:12:04;;;;;;;11.57;10.87;;;6.40;99.90;;;;;;4904430;29;20241;-80
2022/11/22 03:14:30;;;;;;;11.60;10.90;;;6.30;99.90;;;;;;4906683;29;20209;-82
2022/11/22 03:16:57;;;;;;;11.40;10.70;;;6.30;99.90;;;;;;4902001;29;20210;-81
2022/11/22 03:19:25;;;;;;;11.33;10.53;;;6.30;99.90;;;;;;4906036;29;20197;-81
2022/11/22 03:21:52;;;;;;;12.50;11.70;;;6.30;99.90;;;;;;4907700;29;20224;-80
2022/11/22 03:24:19;;;;;;;11.70;11.00;;;6.30;99.90;;;;;;4909350;29;20205;-82
2022/11/22 03:26:47;;;;;;;11.20;10.60;;;6.30;99.90;;;;;;4907853;29;20231;-81
2022/11/22 03:29:14;;;;;;;11.10;10.40;;;6.30;99.90;;;;;;4909744;29;20213;-82
2022/11/22 03:31:41;;;;;;;10.97;10.27;;;6.30;99.90;;;;;;4905823;29;20276;-81
2022/11/22 03:34:10;;;;;;;10.77;10.17;;;6.30;99.90;;;;;;4903432;29;20571;-80
2022/11/22 03:36:39;;;;;;;10.50;9.90;;;6.30;99.90;;;;;;4906160;29;20194;-82
2022/11/22 03:39:05;;;;;;;10.90;10.27;;;6.30;99.90;;;;;;4903793;29;20691;-81
2022/11/22 03:41:32;;;;;;;11.73;11.07;;;6.30;99.90;;;;;;4910675;29;20208;-82
2022/11/22 03:43:59;;;;;;;10.90;10.20;;;6.30;99.90;;;;;;4906825;29;20205;-82
2022/11/22 03:46:26;;;;;;;10.73;10.13;;;6.30;99.90;;;;;;4906857;29;20758;-81
2022/11/22 03:48:53;;;;;;;11.40;10.70;;;6.20;99.90;;;;;;4908335;29;20225;-80
2022/11/22 03:51:20;;;;;;;11.57;10.87;;;6.20;99.90;;;;;;4904541;29;20286;-77
2022/11/22 03:53:48;;;;;;;12.13;11.23;;;6.20;99.90;;;;;;4915200;29;20217;-77
2022/11/22 03:56:15;;;;;;;13.13;12.20;;;6.20;99.90;;;;;;4911168;29;20207;-78
2022/11/22 03:58:41;;;;;;;11.70;10.90;;;6.20;99.90;;;;;;4913145;29;20221;-79
2022/11/22 04:01:08;;;;;;;12.10;11.30;;;6.30;99.90;;;;;;4903660;29;20238;-79
2022/11/22 04:03:35;;;;;;;11.90;11.20;;;6.30;99.90;;;;;;4900453;29;20609;-81
2022/11/22 04:06:02;;;;;;;11.83;11.03;;;6.30;99.90;;;;;;4899188;29;20212;-81
2022/11/22 04:08:29;;;;;;;12.70;11.90;;;6.30;99.90;;;;;;4910873;29;20248;-81
2022/11/22 04:10:57;;;;;;;12.00;11.20;;;6.30;99.90;;;;;;4910492;29;20272;-81
2022/11/22 04:15:05;;;;;;;12.27;11.47;;;6.30;99.90;;;;;;4896360;29;20201;-80
2022/11/22 04:16:10;;;;;;;11.90;11.20;;;6.30;99.90;;;;;;4898607;29;20738;-80
2022/11/22 04:18:37;;;;;;;12.00;11.20;;;6.30;99.90;;;;;;4903105;29;20332;-80
2022/11/22 04:25:12;;;;;;;11.70;11.00;;;6.10;99.90;;;;;;4885684;29;20206;-81
2022/11/22 04:26:36;;;;;;;12.27;11.47;;;6.10;99.90;;;;;;4899967;29;20207;-81
2022/11/22 04:29:03;;;;;;;13.03;12.17;;;6.00;99.90;;;;;;4908776;29;20197;-81
2022/11/22 04:34:14;;;;;;;12.50;11.60;;;5.90;99.90;;;;;;4907772;29;20202;-81
2022/11/22 04:36:41;;;;;;;11.70;10.97;;;5.90;99.90;;;;;;4905242;29;20196;-84
2022/11/22 04:39:08;;;;;;;11.53;10.83;;;5.80;99.90;;;;;;4901300;29;20216;-82
2022/11/22 04:41:37;;;;;;;11.90;11.20;;;5.70;99.90;;;;;;4914087;29;20590;-82
2022/11/22 04:46:48;;;;;;;12.93;12.13;;;5.60;99.90;;;;;;4908964;29;20224;-80
2022/11/22 04:49:15;;;;;;;12.83;11.97;;;5.60;99.90;;;;;;4908797;29;20209;-80
2022/11/22 04:54:26;;;;;;;13.60;12.80;;;5.60;99.90;;;;;;4910874;29;20215;-78
2022/11/22 04:56:54;;;;;;;12.93;12.13;;;5.50;99.90;;;;;;4909252;29;20197;-80
2022/11/22 04:59:21;;;;;;;13.33;12.53;;;5.50;99.90;;;;;;4901461;29;20208;-80
2022/11/22 05:01:48;;;;;;;14.07;13.17;;;5.50;99.90;;;;;;4910704;29;20280;-80
2022/11/22 05:04:15;;;;;;;14.07;13.10;;;5.50;99.90;;;;;;4906198;29;20585;-80
2022/11/22 05:06:42;;;;;;;13.70;12.90;;;5.60;99.90;;;;;;4907441;29;20224;-80
2022/11/22 05:09:08;;;;;;;13.20;12.30;;;5.50;99.90;;;;;;4908747;29;20209;-80
2022/11/22 05:11:35;;;;;;;13.23;12.43;;;5.50;99.90;;;;;;4907102;29;20221;-80
2022/11/22 05:14:03;;;;;;;13.43;12.63;;;5.50;99.90;;;;;;4907842;29;20208;-80
2022/11/22 05:16:30;;;;;;;12.97;12.03;;;5.40;99.90;;;;;;4903558;29;20208;-80
2022/11/22 05:18:58;;;;;;;13.60;12.70;;;5.40;99.90;;;;;;4910436;29;20215;-80
2022/11/22 05:21:26;;;;;;;13.77;12.70;;;5.40;99.90;;;;;;4905081;29;20228;-80
2022/11/22 05:23:55;;;;;;;13.97;13.07;;;5.40;99.90;;;;;;4907224;29;20213;-80
2022/11/22 05:26:22;;;;;;;13.43;12.67;;;5.30;99.90;;;;;;4908686;29;20732;-80
2022/11/22 05:28:50;;;;;;;13.03;12.33;;;5.30;99.90;;;;;;4908792;29;20249;-79
2022/11/22 05:31:22;;;;;;;14.00;13.10;;;5.30;99.90;;;;;;4908818;29;20283;-77
2022/11/22 05:33:50;;;;;;;14.20;13.03;;;5.20;99.90;;;;;;4905301;29;20204;-80
2022/11/22 05:36:17;;;;;;;13.73;12.93;;;5.20;99.90;;;;;;4908764;29;20634;-80
2022/11/22 05:38:44;;;;;;;13.73;12.73;;;5.20;99.90;;;;;;4907627;29;20203;-81
2022/11/22 05:41:12;;;;;;;14.30;13.20;;;5.20;99.90;;;;;;4904642;29;20224;-80
2022/11/22 05:43:40;;;;;;;13.57;12.77;;;5.30;99.90;;;;;;4906816;29;20196;-80
2022/11/22 05:46:08;;;;;;;14.00;13.20;;;5.30;99.90;;;;;;4907811;29;20199;-80
2022/11/22 05:48:38;;;;;;;14.53;13.33;;;5.30;99.90;;;;;;4905820;29;20228;-80
2022/11/22 05:51:06;;;;;;;14.27;13.27;;;5.30;99.90;;;;;;4906975;29;20231;-80
2022/11/22 05:53:32;;;;;;;14.10;13.10;;;5.30;99.90;;;;;;4905519;29;20209;-80
2022/11/22 05:56:04;;;;;;;14.17;13.27;;;5.40;99.90;;;;;;4908278;29;20575;-80
2022/11/22 05:58:31;;;;;;;14.53;13.53;;;5.40;99.90;;;;;;4896392;29;20232;-80
2022/11/22 06:01:03;;;;;;;14.67;13.77;;;5.40;99.90;;;;;;4902898;29;20255;-78
2022/11/22 06:03:30;;;;;;;14.50;13.60;;;5.40;99.90;;;;;;4906313;29;20205;-78
2022/11/22 06:05:58;;;;;;;14.67;13.60;;;5.40;99.90;;;;;;4907110;29;20204;-80
2022/11/22 06:08:25;;;;;;;14.77;13.47;;;5.50;99.90;;;;;;4908349;29;20220;-81
2022/11/22 06:10:52;;;;;;;14.10;13.30;;;5.50;99.90;;;;;;4907826;29;20227;-81
2022/11/22 06:13:19;;;;;;;13.93;13.13;;;5.50;99.90;;;;;;4906457;29;20260;-81
2022/11/22 06:15:46;;;;;;;14.87;13.67;;;5.60;99.90;;;;;;4899375;29;20741;-81
2022/11/22 06:18:13;;;;;;;14.27;13.20;;;5.60;99.90;;;;;;4907515;29;20193;-80
2022/11/22 06:20:39;;;;;;;14.13;13.30;;;5.70;99.90;;;;;;4905573;29;20205;-81
2022/11/22 06:23:08;;;;;;;14.30;13.40;;;5.70;99.90;;;;;;4904402;29;20204;-81
2022/11/22 06:25:35;;;;;;;14.17;13.27;;;5.70;99.90;;;;;;4907317;29;20270;-80
2022/11/22 06:28:02;;;;;;;13.90;12.93;;;5.80;99.90;;;;;;4909708;29;20444;-80
2022/11/22 06:30:28;;;;;;;15.53;14.33;;;5.70;99.90;;;;;;4889575;29;20290;-81
2022/11/22 06:32:57;;;;;;;14.57;13.73;;;5.80;99.90;;;;;;4903427;29;20291;-80
2022/11/22 06:35:24;;;;;;;13.63;12.80;;;5.80;99.90;;;;;;4914925;29;20205;-80
2022/11/22 06:37:50;;;;;;;14.30;13.40;;;5.80;99.90;;;;;;4908897;29;20209;-81
2022/11/22 06:40:19;;;;;;;14.00;13.03;;;5.80;99.90;;;;;;4907108;29;20206;-82
2022/11/22 06:42:45;;;;;;;14.27;13.37;;;5.80;99.90;;;;;;4909730;29;20667;-81
2022/11/22 06:45:12;;;;;;;14.63;13.70;;;5.80;99.90;;;;;;4903863;29;20217;-81
2022/11/22 06:47:39;;;;;;;13.90;13.00;;;5.80;99.90;;;;;;4906944;29;20215;-79
2022/11/22 06:50:07;;;;;;;14.33;13.33;;;5.80;99.90;;;;;;4906593;29;20204;-81
2022/11/22 06:52:34;;;;;;;15.13;13.70;;;5.90;99.90;;;;;;4905203;29;20225;-81
2022/11/22 06:55:01;;;;;;;14.60;13.40;;;5.90;99.90;;;;;;4905558;29;20665;-81
2022/11/22 06:57:29;;;;;;;15.20;13.80;;;5.90;99.90;;;;;;4899189;29;20205;-81
2022/11/22 06:59:56;;;;;;;14.63;13.63;;;5.90;99.90;;;;;;4906928;29;20197;-81
2022/11/22 07:02:22;;;;;;;14.27;13.30;;;6.00;99.90;;;;;;4909968;29;20224;-79
2022/11/22 07:04:49;;;;;;;14.10;13.10;;;6.00;99.90;;;;;;4907438;29;20622;-78
2022/11/22 07:07:16;;;;;;;13.00;12.10;;;6.00;99.90;;;;;;4909410;29;20218;-78
2022/11/22 07:09:43;;;;;;;13.67;12.67;;;6.00;99.90;;;;;;4908365;29;20217;-78
2022/11/22 07:12:10;;;;;;;13.63;12.50;;;6.10;99.90;;;;;;4908486;29;20228;-79
2022/11/22 07:14:38;;;;;;;13.37;12.47;;;6.20;99.90;;;;;;4904532;29;20251;-81
2022/11/22 07:17:05;;;;;;;13.03;12.13;;;6.20;99.90;;;;;;4903630;29;20292;-81
2022/11/22 07:19:32;;;;;;;12.20;11.30;;;6.30;99.90;;;;;;4909081;29;20207;-80
2022/11/22 07:21:59;;;;;;;12.43;11.57;;;6.30;99.90;;;;;;4904615;29;20220;-79
2022/11/22 07:24:26;;;;;;;12.67;11.77;;;6.30;99.90;;;;;;4907225;29;20202;-79
2022/11/22 07:26:53;;;;;;;12.13;11.33;;;6.40;99.90;;;;;;4906411;29;20254;-79
2022/11/22 07:29:20;;;;;;;12.70;11.70;;;6.40;99.90;;;;;;4908110;29;20201;-78
2022/11/22 07:31:48;;;;;;;12.73;11.93;;;6.40;99.90;;;;;;4904569;29;20221;-79
2022/11/22 07:34:15;;;;;;;12.47;11.73;;;6.40;99.90;;;;;;4900392;29;20206;-79
2022/11/22 07:36:41;;;;;;;12.57;11.77;;;6.50;99.90;;;;;;4910133;29;20202;-77
2022/11/22 07:39:08;;;;;;;12.30;11.47;;;6.50;99.90;;;;;;4903763;29;20215;-80
2022/11/22 07:41:35;;;;;;;12.90;11.70;;;6.50;99.90;;;;;;4905598;29;20233;-77
2022/11/22 07:44:02;;;;;;;12.57;11.67;;;6.50;99.90;;;;;;4905546;29;20191;-77
2022/11/22 07:46:31;;;;;;;13.13;11.80;;;6.50;99.90;;;;;;4907644;29;20203;-78
2022/11/22 07:49:01;;;;;;;12.37;11.57;;;6.50;99.90;;;;;;4902112;29;20257;-78
2022/11/22 07:51:28;;;;;;;12.03;11.20;;;6.50;99.90;;;;;;4912645;29;20223;-77
2022/11/22 07:53:56;;;;;;;12.07;11.17;;;6.50;99.90;;;;;;4902949;29;20216;-78
2022/11/22 07:56:23;;;;;;;3.87;3.47;;;6.60;99.90;;;;;;4907925;29;20206;-78
2022/11/22 07:58:50;;;;;;;5.03;4.13;;;6.60;99.90;;;;;;4907938;29;20265;-78
2022/11/22 08:01:18;;;;;;;7.00;6.50;;;6.70;99.90;;;;;;4901723;29;20249;-78
2022/11/22 08:03:45;;;;;;;13.37;12.17;;;6.70;99.90;;;;;;4905164;29;20208;-78
2022/11/22 08:06:14;;;;;;;8.60;7.83;;;6.70;99.90;;;;;;4906760;29;20207;-78
2022/11/22 08:08:41;;;;;;;5.90;5.27;;;6.80;99.90;;;;;;4911082;29;20210;-78
2022/11/22 08:11:09;;;;;;;4.63;4.23;;;6.80;99.90;;;;;;4911159;29;20224;-77
2022/11/22 08:13:37;;;;;;;5.80;4.87;;;6.80;99.90;;;;;;4910053;29;20212;-78
2022/11/22 08:16:06;;;;;;;11.77;10.80;;;6.90;99.90;;;;;;4910305;29;20211;-78
2022/11/22 08:18:34;;;;;;;11.87;10.87;;;6.90;99.90;;;;;;4907138;29;20203;-77
2022/11/22 08:21:03;;;;;;;13.50;12.50;;;6.90;99.90;;;;;;4904382;29;20235;-78
2022/11/22 08:23:31;;;;;;;12.47;11.50;;;7.00;99.90;;;;;;4908788;29;20195;-78
2022/11/22 08:25:58;;;;;;;12.90;12.00;;;7.00;99.90;;;;;;4908682;29;20208;-78
2022/11/22 08:28:25;;;;;;;12.10;11.30;;;7.10;99.90;;;;;;4909497;29;20222;-78
2022/11/22 08:30:58;;;;;;;12.70;11.67;;;7.10;99.90;;;;;;4909345;29;20280;-77
2022/11/22 08:33:25;;;;;;;11.93;11.20;;;7.20;99.90;;;;;;4911522;29;20573;-77
2022/11/22 08:35:52;;;;;;;12.30;11.40;;;7.30;99.90;;;;;;4909508;29;20200;-77
2022/11/22 08:38:18;;;;;;;12.07;11.27;;;7.30;99.90;;;;;;4905280;29;20215;-78
2022/11/22 08:40:47;;;;;;;12.87;11.80;;;7.40;99.90;;;;;;4905518;29;20294;-77
2022/11/22 08:43:14;;;;;;;13.07;11.97;;;7.40;99.90;;;;;;4910011;29;20215;-77
2022/11/22 08:45:40;;;;;;;13.07;12.17;;;7.50;99.90;;;;;;4909535;29;20203;-77
2022/11/22 08:48:07;;;;;;;12.90;12.00;;;7.50;99.90;;;;;;4909856;29;20222;-77
2022/11/22 08:50:34;;;;;;;13.70;12.70;;;7.60;99.90;;;;;;4908478;29;20205;-78
2022/11/22 08:53:01;;;;;;;12.80;11.77;;;7.60;99.90;;;;;;4907974;29;20206;-78
2022/11/22 08:55:28;;;;;;;13.47;12.40;;;7.70;99.90;;;;;;4904779;29;20673;-78
2022/11/22 08:57:59;;;;;;;14.17;12.90;;;7.70;99.90;;;;;;4906233;29;20268;-79
2022/11/22 09:00:26;;;;;;;13.40;12.33;;;7.80;99.90;;;;;;4907654;29;20204;-79
2022/11/22 09:02:53;;;;;;;13.00;11.93;;;7.80;99.90;;;;;;4906664;29;20279;-79
2022/11/22 09:05:20;;;;;;;13.23;12.10;;;7.80;99.90;;;;;;4903623;29;20679;-80
2022/11/22 09:07:47;;;;;;;12.50;11.53;;;7.90;99.90;;;;;;4904661;29;20224;-79
2022/11/22 09:10:14;;;;;;;12.57;11.57;;;7.90;99.90;;;;;;4906315;29;20228;-79
2022/11/22 09:12:43;;;;;;;12.17;11.27;;;7.90;99.90;;;;;;4904522;29;20276;-79
2022/11/22 09:15:12;;;;;;;12.33;11.43;;;8.00;99.90;;;;;;4906168;29;20259;-79
2022/11/22 09:17:39;;;;;;;12.37;11.47;;;8.10;99.90;;;;;;4907111;29;20225;-79
2022/11/22 09:20:07;;;;;;;12.70;11.53;;;8.10;99.90;;;;;;4909374;29;20227;-80
2022/11/22 09:22:34;;;;;;;11.83;11.00;;;8.20;99.90;;;;;;4904825;29;20227;-79
2022/11/22 09:25:00;;;;;;;12.70;11.63;;;8.20;99.90;;;;;;4903534;29;20220;-80
2022/11/22 09:27:27;;;;;;;13.13;11.90;;;8.20;99.90;;;;;;4907388;29;20204;-80
2022/11/22 09:29:54;;;;;;;12.83;11.80;;;8.30;99.90;;;;;;4906207;29;20200;-81
2022/11/22 09:32:23;;;;;;;13.73;12.60;;;8.30;99.90;;;;;;4907377;29;20708;-79
2022/11/22 09:34:50;;;;;;;13.30;12.10;;;8.30;99.90;;;;;;4908894;29;20317;-80
2022/11/22 09:37:18;;;;;;;13.20;12.20;;;8.40;99.90;;;;;;4904761;29;20215;-80
2022/11/22 09:39:45;;;;;;;13.07;12.07;;;8.40;99.90;;;;;;4906965;29;20200;-80
2022/11/22 09:42:46;;;;;;;12.00;11.17;;;8.40;99.90;;;;;;4906783;29;20224;-79
2022/11/22 09:45:37;;;;;;;12.20;11.30;;;8.50;99.90;;;;;;4897855;29;20212;-80
2022/11/22 09:48:16;;;;;;;12.80;11.60;;;8.50;99.90;;;;;;4905321;29;20239;-80
2022/11/22 09:50:52;;;;;;;12.00;11.10;;;8.50;99.90;;;;;;4907425;29;20203;-79
2022/11/22 09:53:24;;;;;;;12.53;11.60;;;8.50;99.90;;;;;;4907761;29;20200;-80
2022/11/22 09:55:54;;;;;;;12.67;11.57;;;8.60;99.90;;;;;;4900467;29;20205;-79
2022/11/22 09:58:29;;;;;;;12.17;11.13;;;8.50;99.90;;;;;;4906760;29;20200;-80
2022/11/22 10:01:03;;;;;;;12.70;11.60;;;8.60;99.90;;;;;;4904079;29;20258;-79
2022/11/22 10:03:42;;;;;;;11.80;10.90;;;8.60;99.90;;;;;;4900746;29;20204;-80
2022/11/22 10:06:15;;;;;;;11.80;10.83;;;8.60;99.90;;;;;;4907788;29;20681;-79
2022/11/22 10:08:52;;;;;;;11.47;10.67;;;8.60;99.90;;;;;;4904761;29;20223;-80
2022/11/22 10:11:25;;;;;;;12.30;11.20;;;8.60;99.90;;;;;;4901281;29;20224;-80
2022/11/22 10:13:59;;;;;;;11.87;10.73;;;8.70;99.90;;;;;;4902839;29;20208;-79
2022/11/22 10:16:32;;;;;;;12.37;10.77;;;8.70;99.90;;;;;;4907847;29;20204;-79
2022/11/22 10:19:06;;;;;;;11.00;10.17;;;8.60;99.90;;;;;;4903867;29;20216;-79
2022/11/22 10:21:33;;;;;;;11.60;10.80;;;8.60;99.90;;;;;;4897667;29;20261;-80
2022/11/22 10:24:00;;;;;;;12.07;11.00;;;8.60;99.90;;;;;;4905202;29;20204;-80
2022/11/22 10:26:31;;;;;;;11.30;10.40;;;8.60;99.90;;;;;;4905866;29;20200;-80
2022/11/22 10:29:12;;;;;;;12.03;10.93;;;8.60;99.90;;;;;;4905417;29;20698;-80
2022/11/22 10:31:45;;;;;;;11.10;10.30;;;8.60;99.90;;;;;;4901528;29;20739;-79
2022/11/22 10:34:20;;;;;;;11.20;10.40;;;8.60;99.90;;;;;;4909322;29;20263;-79
2022/11/22 10:36:51;;;;;;;11.20;10.40;;;8.70;99.90;;;;;;4905497;29;20389;-80
2022/11/22 10:39:45;;;;;;;11.77;10.77;;;8.70;99.90;;;;;;4907795;29;20655;-79
2022/11/22 10:42:31;;;;;;;11.40;10.53;;;8.70;99.90;;;;;;4903442;29;20224;-80
2022/11/22 10:45:05;;;;;;;11.90;10.83;;;8.70;99.90;;;;;;4903453;29;20560;-80
2022/11/22 10:47:45;;;;;;;11.13;10.30;;;8.70;99.90;;;;;;4897784;29;20203;-80
2022/11/22 10:50:20;;;;;;;11.77;10.87;;;8.80;99.90;;;;;;4905238;29;20200;-79
2022/11/22 10:52:57;;;;;;;11.30;10.47;;;8.90;99.90;;;;;;4906004;29;20216;-80
2022/11/22 10:55:46;;;;;;;11.70;10.60;;;9.00;99.90;;;;;;4907003;29;20236;-80
2022/11/22 10:58:21;;;;;;;10.60;9.83;;;9.00;99.90;;;;;;4906012;29;20210;-79
2022/11/22 11:00:53;;;;;;;11.00;10.00;;;9.10;99.90;;;;;;4904643;29;20223;-80
2022/11/22 11:03:27;;;;;;;10.83;10.07;;;9.10;99.90;;;;;;4905365;29;20208;-78
2022/11/22 11:06:00;;;;;;;11.20;10.40;;;9.10;99.90;;;;;;4906800;29;20191;-79
2022/11/22 11:08:34;;;;;;;11.20;10.40;;;9.10;99.90;;;;;;4895825;29;20688;-79
2022/11/22 11:11:02;;;;;;;10.90;10.00;;;9.10;99.90;;;;;;4909345;29;20238;-78
2022/11/22 11:13:33;;;;;;;11.10;10.30;;;9.10;99.90;;;;;;4895762;29;20227;-78
2022/11/22 11:16:04;;;;;;;11.20;10.30;;;9.10;99.90;;;;;;4902752;29;20208;-78
2022/11/22 11:18:36;;;;;;;11.40;10.60;;;9.20;99.90;;;;;;4899391;29;20200;-79
2022/11/22 11:21:06;;;;;;;11.37;10.47;;;9.20;99.90;;;;;;4900634;29;20224;-80
2022/11/22 11:23:34;;;;;;;11.20;10.40;;;9.30;99.90;;;;;;4908652;29;20207;-79
2022/11/22 11:26:22;;;;;;;11.53;10.73;;;9.30;99.90;;;;;;4904540;29;20582;-81
2022/11/22 11:28:49;;;;;;;11.70;10.80;;;9.30;99.90;;;;;;4899747;29;20219;-81
2022/11/22 11:31:17;;;;;;;11.83;10.70;;;9.30;99.90;;;;;;4906506;29;20243;-80
2022/11/22 11:33:46;;;;;;;11.07;10.17;;;9.40;99.90;;;;;;4903980;29;20664;-80
2022/11/22 11:36:17;;;;;;;10.83;10.13;;;9.40;99.90;;;;;;4901081;29;20584;-81
2022/11/22 11:38:55;;;;;;;11.70;10.80;;;9.50;99.90;;;;;;4907024;29;20219;-80
2022/11/22 11:41:25;;;;;;;11.70;10.60;;;9.50;99.90;;;;;;4898766;29;20228;-81
2022/11/22 11:43:53;;;;;;;11.60;10.60;;;9.50;99.90;;;;;;4906649;29;20673;-80
2022/11/22 11:46:22;;;;;;;10.90;10.10;;;9.60;99.90;;;;;;4907572;29;20711;-80
2022/11/22 11:48:49;;;;;;;11.03;10.23;;;9.60;99.90;;;;;;4907455;29;20216;-80
2022/11/22 11:51:29;;;;;;;11.33;10.17;;;9.60;99.90;;;;;;4911321;29;20318;-80
2022/11/22 11:54:00;;;;;;;10.90;10.07;;;9.60;99.90;;;;;;4909467;29;20211;-80
2022/11/22 11:56:41;;;;;;;11.00;10.00;;;9.50;99.90;;;;;;4897332;29;20211;-80
2022/11/22 11:59:13;;;;;;;11.30;10.47;;;9.50;99.90;;;;;;4903968;29;20219;-80
2022/11/22 12:01:48;;;;;;;11.43;10.70;;;9.50;99.90;;;;;;4906880;29;20233;-80
2022/11/22 12:04:21;;;;;;;11.03;10.23;;;9.60;99.90;;;;;;4909279;29;20215;-80
2022/11/22 12:07:04;;;;;;;10.57;9.87;;;9.60;99.90;;;;;;4908934;29;20236;-80
2022/11/22 12:09:35;;;;;;;11.10;10.30;;;9.60;99.90;;;;;;4899545;29;20220;-80
2022/11/22 12:12:15;;;;;;;11.40;10.40;;;9.60;99.90;;;;;;4908130;29;20220;-78
2022/11/22 12:14:46;;;;;;;11.23;10.27;;;9.60;99.90;;;;;;4903019;29;20196;-78
2022/11/22 12:17:23;;;;;;;11.23;10.33;;;9.50;99.90;;;;;;4909380;29;20218;-81
2022/11/22 12:19:57;;;;;;;10.53;9.93;;;9.50;99.90;;;;;;4905493;29;20204;-80
2022/11/22 12:22:30;;;;;;;11.03;10.33;;;9.60;99.90;;;;;;4907557;29;20228;-81
2022/11/22 12:25:00;;;;;;;11.33;10.30;;;9.50;99.90;;;;;;4910244;29;20210;-80
2022/11/22 12:27:27;;;;;;;10.73;10.03;;;9.50;99.90;;;;;;4894645;29;20203;-81
2022/11/22 12:29:54;;;;;;;12.07;11.07;;;9.50;99.90;;;;;;4904952;29;20224;-80
2022/11/22 12:32:26;;;;;;;11.23;10.47;;;9.50;99.90;;;;;;4908760;29;20244;-80
2022/11/22 12:34:58;;;;;;;11.27;10.37;;;9.50;99.90;;;;;;4906747;29;20249;-80
2022/11/22 12:37:31;;;;;;;11.40;10.30;;;9.50;99.90;;;;;;4908162;29;20207;-80
2022/11/22 12:40:04;;;;;;;11.13;10.43;;;9.50;99.90;;;;;;4907333;29;20592;-80
2022/11/22 12:42:34;;;;;;;11.37;10.47;;;9.50;99.90;;;;;;4899157;29;20610;-80
2022/11/22 12:45:05;;;;;;;11.03;10.30;;;9.50;99.90;;;;;;4906999;29;20209;-81
2022/11/22 12:47:37;;;;;;;10.90;10.00;;;9.40;99.90;;;;;;4904461;29;20201;-80
2022/11/22 12:50:09;;;;;;;11.63;10.57;;;9.40;99.90;;;;;;4907359;29;20238;-80
2022/11/22 12:52:43;;;;;;;11.47;10.67;;;9.40;99.90;;;;;;4903728;29;20220;-80
2022/11/22 12:55:17;;;;;;;11.53;10.70;;;9.30;99.90;;;;;;4907946;29;20235;-80
2022/11/22 12:57:52;;;;;;;11.50;10.63;;;9.30;99.90;;;;;;4907095;29;20200;-80
2022/11/22 13:00:21;;;;;;;11.23;10.53;;;9.30;99.90;;;;;;4901830;29;20212;-80
2022/11/22 13:02:59;;;;;;;10.70;9.90;;;9.40;99.90;;;;;;4907193;29;20224;-80
2022/11/22 13:05:30;;;;;;;11.53;10.63;;;9.40;99.90;;;;;;4909911;29;20202;-81
2022/11/22 13:08:08;;;;;;;11.30;10.50;;;9.40;99.90;;;;;;4905362;29;20200;-80
2022/11/22 13:10:39;;;;;;;11.20;10.40;;;9.50;99.90;;;;;;4898664;29;20212;-80
2022/11/22 13:13:17;;;;;;;10.93;10.03;;;9.50;99.90;;;;;;4903328;29;20220;-80
2022/11/22 13:15:45;;;;;;;11.53;10.63;;;9.50;99.90;;;;;;4908674;29;20232;-80
2022/11/22 13:18:15;;;;;;;10.70;10.00;;;9.50;99.90;;;;;;4909463;29;20195;-80
2022/11/22 13:20:52;;;;;;;11.13;10.33;;;9.40;99.90;;;;;;4905610;29;20204;-80
2022/11/22 13:23:37;;;;;;;12.07;11.17;;;9.30;99.90;;;;;;4902863;29;20260;-81
2022/11/22 13:26:08;;;;;;;11.30;10.50;;;9.30;99.90;;;;;;4901562;29;20307;-81
2022/11/22 13:28:39;;;;;;;12.07;10.90;;;9.20;99.90;;;;;;4908428;29;20216;-81
2022/11/22 13:31:14;;;;;;;10.80;10.10;;;9.20;99.90;;;;;;4904404;29;20235;-81
2022/11/22 13:33:51;;;;;;;11.63;10.90;;;9.10;99.90;;;;;;4907388;29;20247;-81
2022/11/22 13:36:40;;;;;;;11.40;10.70;;;9.10;99.90;;;;;;4905274;29;20302;-81
2022/11/22 13:39:17;;;;;;;12.20;11.40;;;9.10;99.90;;;;;;4900389;29;20236;-80
2022/11/22 13:42:00;;;;;;;12.57;11.77;;;9.00;99.90;;;;;;4900724;29;20213;-81
2022/11/22 13:44:38;;;;;;;11.63;10.80;;;8.90;99.90;;;;;;4905023;29;20340;-81
2022/11/22 13:47:30;;;;;;;11.43;10.73;;;8.90;99.90;;;;;;4905104;29;20676;-81
2022/11/22 13:49:57;;;;;;;10.90;10.20;;;8.90;99.90;;;;;;4902348;29;20220;-80
2022/11/22 13:52:46;;;;;;;10.47;9.67;;;8.80;99.90;;;;;;4911982;29;20564;-80
2022/11/22 13:55:30;;;;;;;10.47;9.87;;;8.80;99.90;;;;;;4897443;29;20311;-80
2022/11/22 13:58:50;;;;;;;10.33;9.73;;;8.80;99.90;;;;;;4907004;29;20612;-79
2022/11/22 14:01:58;;;;;;;11.07;10.10;;;8.70;99.90;;;;;;4896509;29;20231;-80
2022/11/22 14:04:36;;;;;;;9.90;9.30;;;8.60;99.90;;;;;;4853603;29;20304;-80
2022/11/22 14:07:06;;;;;;;10.30;9.70;;;8.60;99.90;;;;;;4888557;29;20203;-80
2022/11/22 14:09:37;;;;;;;9.93;9.33;;;8.50;99.90;;;;;;4904239;29;20250;-80
2022/11/22 14:12:34;;;;;;;10.20;9.20;;;8.60;99.90;;;;;;4907026;29;20224;-80
2022/11/22 14:15:22;;;;;;;9.87;9.27;;;8.50;99.90;;;;;;4898937;29;20215;-77
2022/11/22 14:18:00;;;;;;;10.00;9.40;;;8.40;99.90;;;;;;4901269;29;20660;-77
2022/11/22 14:20:41;;;;;;;9.93;9.23;;;8.40;99.90;;;;;;4909481;29;20196;-77
2022/11/22 14:23:20;;;;;;;9.40;8.70;;;8.40;99.90;;;;;;4904441;29;20211;-78
2022/11/22 14:26:13;;;;;;;9.90;9.30;;;8.30;99.90;;;;;;4905889;29;20208;-77
2022/11/22 14:29:17;;;;;;;9.90;9.20;;;8.30;99.90;;;;;;4899256;29;20227;-79
2022/11/22 14:31:53;;;;;;;10.00;9.30;;;8.20;99.90;;;;;;4898317;29;20227;-82
2022/11/22 14:34:24;;;;;;;10.00;9.40;;;8.20;99.90;;;;;;4907935;29;20204;-81
2022/11/22 14:37:30;;;;;;;10.20;9.50;;;8.10;99.90;;;;;;4904580;29;20208;-81
2022/11/22 14:40:28;;;;;;;10.33;9.60;;;8.10;99.90;;;;;;4906803;29;20258;-81
2022/11/22 14:42:59;;;;;;;9.80;9.20;;;8.10;99.90;;;;;;4905402;29;20680;-81
2022/11/22 14:45:35;;;;;;;9.70;9.20;;;8.00;99.90;;;;;;4904428;29;20259;-82
2022/11/22 14:48:12;;;;;;;10.33;9.73;;;8.00;99.90;;;;;;4901854;29;20211;-81
2022/11/22 14:50:44;;;;;;;11.00;10.30;;;8.00;99.90;;;;;;4893427;29;20242;-79
2022/11/22 14:53:22;;;;;;;11.10;10.30;;;7.90;99.90;;;;;;4899475;29;20212;-78
2022/11/22 14:55:52;;;;;;;10.30;9.70;;;7.90;99.90;;;;;;4909420;29;20208;-78
2022/11/22 14:58:24;;;;;;;11.57;10.80;;;7.90;99.90;;;;;;4904536;29;20201;-77
2022/11/22 15:01:13;;;;;;;11.03;10.27;;;7.80;99.90;;;;;;4898217;29;20263;-80
2022/11/22 15:04:25;;;;;;;10.30;9.53;;;7.80;99.90;;;;;;4896675;29;20230;-81
2022/11/22 15:07:06;;;;;;;10.40;9.80;;;7.80;99.90;;;;;;4862985;29;20209;-81
2022/11/22 15:10:00;;;;;;;9.83;9.33;;;7.70;99.90;;;;;;4900514;29;20223;-80
2022/11/22 15:13:15;;;;;;;9.90;9.30;;;7.60;99.90;;;;;;4909596;29;20728;-77
2022/11/22 15:15:44;;;;;;;10.57;9.90;;;7.60;99.90;;;;;;4829523;29;20750;-78
2022/11/22 15:18:22;;;;;;;10.67;10.03;;;7.60;99.90;;;;;;4853369;29;20277;-80
2022/11/22 15:20:49;;;;;;;10.27;9.67;;;7.60;99.90;;;;;;4898728;29;20823;-80
2022/11/22 15:23:19;;;;;;;10.60;9.97;;;7.60;99.90;;;;;;4910483;29;20259;-80
2022/11/22 15:25:48;;;;;;;10.20;9.60;;;7.60;99.90;;;;;;4912317;29;20629;-80
2022/11/22 15:28:17;;;;;;;9.70;9.20;;;7.60;99.90;;;;;;4910531;29;20619;-81
2022/11/22 15:30:44;;;;;;;10.50;9.90;;;7.50;99.90;;;;;;4910894;29;20607;-80
2022/11/22 15:33:22;;;;;;;10.20;9.60;;;7.50;99.90;;;;;;4899397;29;20639;-81
2022/11/22 15:36:09;;;;;;;10.13;9.43;;;7.50;99.90;;;;;;4895822;29;20636;-80
2022/11/22 15:38:42;;;;;;;10.33;9.47;;;7.50;99.90;;;;;;4892024;29;20222;-80
2022/11/22 15:41:15;;;;;;;9.90;9.20;;;7.40;99.90;;;;;;4899893;29;20231;-81
2022/11/22 15:43:42;;;;;;;10.63;9.93;;;7.40;99.90;;;;;;4907964;29;20644;-81
2022/11/22 15:46:09;;;;;;;11.13;10.53;;;7.40;99.90;;;;;;4903430;29;20219;-80
2022/11/22 15:48:41;;;;;;;11.20;10.50;;;7.40;99.90;;;;;;4913387;29;20223;-81
2022/11/22 15:51:21;;;;;;;11.70;11.00;;;7.40;99.90;;;;;;4909190;29;20245;-80
2022/11/22 15:54:17;;;;;;;11.13;10.40;;;7.40;99.90;;;;;;4913150;29;20211;-80
2022/11/22 15:56:48;;;;;;;11.23;10.37;;;7.40;99.90;;;;;;4906305;29;20195;-79
2022/11/22 15:59:22;;;;;;;10.83;10.20;;;7.40;99.90;;;;;;4903089;29;20292;-80
2022/11/22 16:01:51;;;;;;;10.60;10.00;;;7.40;99.90;;;;;;4906846;29;20236;-78
2022/11/22 16:04:21;;;;;;;10.50;9.80;;;7.40;99.90;;;;;;4921777;29;20202;-78
2022/11/22 16:06:49;;;;;;;10.40;9.80;;;7.40;99.90;;;;;;4918086;29;20203;-81
2022/11/22 16:09:25;;;;;;;10.23;9.63;;;7.30;99.90;;;;;;4907021;29;20212;-79
2022/11/22 16:12:00;;;;;;;10.20;9.60;;;7.30;99.90;;;;;;4909238;29;20241;-81
2022/11/22 16:14:42;;;;;;;10.50;9.80;;;7.30;99.90;;;;;;4904832;29;20210;-81